ENQC

Troll C Platform Heliport

Norway
METAR ENQC 190720Z AUTO 27006KT 9999NDV FEW018/// 14/10 Q1019 W///S3
Observed Flight Rules
Jul-19 @ 07:20 UTC (11 minutes ago)
Wind Clouds
270° at 6 knots
  • Few at 1,800' AGL
Temperatures Readings
Current 14°C / 57°F
Dewpoint 10°C / 50°F
Humidity 77%
Altimeter 30.09" Hg
Pressure 1019 hPa
Elevation 20
METAR ENQC 190720Z AUTO 27006KT 9999NDV FEW018/// 14/10 Q1019 W///S3
Observed Flight Rules
Jul-19 @ 07:20 UTC
(11 minutes ago)
Wind
270° at 6 knots
Clouds
  • Few at 1,800' AGL
Temperature Dewpoint
14°C / 57°F 10°C / 50°F
Humidity Altimeter Pressure
77% 30.09" Hg 1019 hPa